createdAt,value
2019-01-06T00:01:42.594Z,89.65
2019-01-06T00:07:08.050Z,90.09
2019-01-06T00:12:31.600Z,89.95
2019-01-06T00:17:57.409Z,90.19
2019-01-06T00:23:21.345Z,90.07
2019-01-06T00:28:45.403Z,90.53
2019-01-06T00:34:19.764Z,90.22
2019-01-06T00:39:50.381Z,89.63
2019-01-06T00:45:14.044Z,90.22
2019-01-06T00:50:44.739Z,90.25
2019-01-06T00:56:29.340Z,90.53
2019-01-06T01:01:53.709Z,90.33
2019-01-06T01:07:19.134Z,89.72
2019-01-06T01:12:47.620Z,90.30
2019-01-06T01:18:15.632Z,89.48
2019-01-06T01:23:39.554Z,89.67
2019-01-06T01:29:10.922Z,89.53
2019-01-06T01:34:42.207Z,89.28
2019-01-06T01:40:18.799Z,89.28
2019-01-06T01:45:44.878Z,88.62
2019-01-06T01:51:09.117Z,88.77
2019-01-06T01:56:35.042Z,88.71
2019-01-06T02:01:58.953Z,89.19
2019-01-06T02:07:30.373Z,89.34
2019-01-06T02:12:54.965Z,89.79
2019-01-06T02:18:26.316Z,89.61
2019-01-06T02:24:00.373Z,89.30
2019-01-06T02:29:28.584Z,89.07
2019-01-06T02:34:52.193Z,89.80
2019-01-06T02:40:15.919Z,89.27
2019-01-06T02:45:56.458Z,89.46
2019-01-06T02:51:28.079Z,89.27
2019-01-06T02:56:52.223Z,88.41
2019-01-06T03:02:16.275Z,89.29
2019-01-06T03:07:37.390Z,89.18
2019-01-06T03:13:02.498Z,90.00
2019-01-06T03:18:29.482Z,89.98
2019-01-06T03:23:57.560Z,89.93
2019-01-06T03:29:21.742Z,89.72
2019-01-06T03:34:49.873Z,89.95
2019-01-06T03:40:13.484Z,89.71
2019-01-06T03:45:41.616Z,89.62
2019-01-06T03:51:21.832Z,89.98
2019-01-06T03:57:00.310Z,89.58
2019-01-06T04:02:24.312Z,90.64
2019-01-06T04:07:48.213Z,90.00
2019-01-06T04:13:18.306Z,89.76
2019-01-06T04:18:42.034Z,89.98
2019-01-06T04:24:03.508Z,90.74
2019-01-06T04:29:28.646Z,90.00
2019-01-06T04:34:55.244Z,89.72
2019-01-06T04:40:15.273Z,89.33
2019-01-06T04:45:49.235Z,89.55
2019-01-06T04:51:13.531Z,89.91
2019-01-06T04:56:38.441Z,89.26
2019-01-06T05:02:02.212Z,89.55
2019-01-06T05:07:27.505Z,89.57
2019-01-06T05:12:51.599Z,89.85
2019-01-06T05:18:15.637Z,90.26
2019-01-06T05:23:50.090Z,90.68
2019-01-06T05:29:27.245Z,91.36
2019-01-06T05:34:51.010Z,91.75
2019-01-06T05:40:16.192Z,92.11
2019-01-06T05:45:44.354Z,92.03
2019-01-06T05:51:15.610Z,91.80
2019-01-06T05:56:30.055Z,91.98
2019-01-06T06:01:54.692Z,91.91
2019-01-06T06:07:20.086Z,92.00
2019-01-06T06:12:44.671Z,91.48
2019-01-06T06:18:08.841Z,92.26
2019-01-06T06:23:45.990Z,92.54
2019-01-06T06:29:09.981Z,92.00
2019-01-06T06:34:35.076Z,92.38
2019-01-06T06:40:03.158Z,91.70
2019-01-06T06:45:31.371Z,92.31
2019-01-06T06:50:55.534Z,92.22
2019-01-06T06:56:19.406Z,92.16
2019-01-06T07:02:26.236Z,92.01
2019-01-06T07:08:06.870Z,92.29
2019-01-06T07:13:41.219Z,92.50
2019-01-06T07:19:12.815Z,92.38
2019-01-06T07:24:37.729Z,92.18
2019-01-06T07:30:01.828Z,92.35
2019-01-06T07:35:26.255Z,91.18
2019-01-06T07:40:49.945Z,91.47
2019-01-06T07:46:14.224Z,91.54
2019-01-06T07:51:42.399Z,91.30
2019-01-06T07:57:06.584Z,91.11
2019-01-06T08:02:50.037Z,91.37
2019-01-06T08:08:13.689Z,91.27
2019-01-06T08:13:48.764Z,91.42
2019-01-06T08:19:29.617Z,91.95
2019-01-06T08:25:00.901Z,92.11
2019-01-06T08:30:26.099Z,92.03
2019-01-06T08:36:03.633Z,92.07
2019-01-06T08:41:27.671Z,92.00
2019-01-06T08:46:51.766Z,92.52
2019-01-06T08:52:17.397Z,92.64
2019-01-06T08:57:48.584Z,92.64
2019-01-06T09:03:16.983Z,92.32
2019-01-06T09:08:48.287Z,90.77
2019-01-06T09:14:20.369Z,90.87
2019-01-06T09:19:50.159Z,91.57
2019-01-06T09:25:11.403Z,92.10
2019-01-06T09:30:35.745Z,91.75
2019-01-06T09:36:03.933Z,91.71
2019-01-06T09:41:41.439Z,91.91
2019-01-06T09:47:25.148Z,92.11
2019-01-06T09:53:05.784Z,92.27
2019-01-06T09:58:43.077Z,91.85
2019-01-06T10:04:07.002Z,89.55
2019-01-06T10:09:32.225Z,90.00
2019-01-06T10:15:04.089Z,90.41
2019-01-06T10:20:29.269Z,89.77
2019-01-06T10:25:53.480Z,88.73
2019-01-06T10:31:18.389Z,89.46
2019-01-06T10:36:42.822Z,89.41
2019-01-06T10:42:11.243Z,89.90
2019-01-06T10:47:33.138Z,89.17
2019-01-06T10:52:56.822Z,89.80
2019-01-06T10:58:21.054Z,89.00
2019-01-06T11:03:45.103Z,89.94
2019-01-06T11:09:07.001Z,90.99
2019-01-06T11:14:35.704Z,90.56
2019-01-06T11:20:04.434Z,90.35
2019-01-06T11:25:28.600Z,89.63
2019-01-06T11:30:52.517Z,89.35
2019-01-06T11:36:11.789Z,89.69
2019-01-06T11:41:39.965Z,90.50
2019-01-06T11:47:11.709Z,89.42
2019-01-06T11:52:46.044Z,90.32
2019-01-06T11:58:17.455Z,90.25
2019-01-06T12:03:55.097Z,90.07
2019-01-06T12:09:23.885Z,90.29
2019-01-06T12:14:54.947Z,90.50
2019-01-06T12:20:19.405Z,88.94
2019-01-06T12:25:44.610Z,89.07
2019-01-06T12:31:21.956Z,89.26
2019-01-06T12:36:54.662Z,89.36
2019-01-06T12:42:22.553Z,89.52
2019-01-06T12:47:57.145Z,89.27
2019-01-06T12:53:14.210Z,88.78
2019-01-06T12:58:39.373Z,88.99
2019-01-06T13:04:03.409Z,89.04
2019-01-06T13:09:37.757Z,89.96
2019-01-06T13:15:12.312Z,89.77
2019-01-06T13:20:52.584Z,90.63
2019-01-06T13:26:15.664Z,90.73
2019-01-06T13:31:43.800Z,90.82
2019-01-06T13:37:21.346Z,91.17
2019-01-06T13:43:02.010Z,91.63
2019-01-06T13:48:26.193Z,92.10
2019-01-06T13:54:02.345Z,92.32
2019-01-06T13:59:30.575Z,92.63
2019-01-06T14:05:01.932Z,92.69
2019-01-06T14:10:20.942Z,92.85
2019-01-06T14:15:41.223Z,92.52
2019-01-06T14:21:05.081Z,91.53
2019-01-06T14:26:28.976Z,91.63
2019-01-06T14:32:03.290Z,91.54
2019-01-06T14:37:37.327Z,91.19
2019-01-06T14:43:01.114Z,90.98
2019-01-06T14:48:34.528Z,91.12
2019-01-06T14:53:58.597Z,91.31
2019-01-06T14:59:40.669Z,91.46
2019-01-06T15:04:56.781Z,91.56
2019-01-06T15:10:24.526Z,91.22
2019-01-06T15:15:55.601Z,91.51
2019-01-06T15:21:21.358Z,91.05
2019-01-06T15:26:53.737Z,91.70
2019-01-06T15:32:18.897Z,91.54
2019-01-06T15:37:47.736Z,91.68
2019-01-06T15:43:29.172Z,91.92
2019-01-06T15:49:07.000Z,92.03
2019-01-06T15:54:27.978Z,92.28
2019-01-06T15:59:54.442Z,92.86
2019-01-06T16:05:38.410Z,92.71
2019-01-06T16:11:02.286Z,93.03
2019-01-06T16:16:33.979Z,93.26
2019-01-06T16:21:59.275Z,92.93
2019-01-06T16:27:23.541Z,92.87
2019-01-06T16:32:47.800Z,92.49
2019-01-06T16:38:27.959Z,92.45
2019-01-06T16:44:11.263Z,92.39
2019-01-06T16:49:33.921Z,92.70
2019-01-06T17:15:47.997Z,90.59
2019-01-06T17:21:12.744Z,89.91
2019-01-06T17:26:44.454Z,89.56
2019-01-06T17:32:29.404Z,90.04
2019-01-06T17:37:53.754Z,90.48
2019-01-06T17:43:18.013Z,89.99
2019-01-06T17:48:43.242Z,90.68
2019-01-06T17:54:12.190Z,90.92
2019-01-06T20:49:36.359Z,90.11
